Time;durP1;ratioP1;P1;durP2;ratioP2;P2;SDS_P1;SDS_P2;PMS_P1;PMS_P2;Temp;Humidity;BMP_temperature;BMP_pressure;BME280_temperature;BME280_humidity;BME280_pressure;Samples;Min_cycle;Max_cycle;Signal;HPM_P1;HPM_P2
2021/10/15 00:00:12;;;;;;;8.25;5.00;;;7.60;99.90;;;;;;5071831;28;20135;-78
2021/10/15 00:02:39;;;;;;;7.90;5.10;;;7.60;99.90;;;;;;5071662;28;20131;-78
2021/10/15 00:05:09;;;;;;;7.07;4.88;;;7.70;99.90;;;;;;5071530;28;20144;-78
2021/10/15 00:07:36;;;;;;;8.57;5.30;;;7.70;99.90;;;;;;5089199;28;20159;-78
2021/10/15 00:10:05;;;;;;;8.85;5.35;;;7.70;99.90;;;;;;5091772;28;20502;-79
2021/10/15 00:12:32;;;;;;;8.10;5.10;;;7.70;99.90;;;;;;5090982;28;20143;-79
2021/10/15 00:14:59;;;;;;;7.80;4.82;;;7.70;99.90;;;;;;5081199;28;20136;-79
2021/10/15 00:17:26;;;;;;;8.10;5.10;;;7.80;99.90;;;;;;5086979;28;20151;-78
2021/10/15 00:19:53;;;;;;;7.68;4.88;;;7.80;99.90;;;;;;5091793;28;20698;-79
2021/10/15 00:22:21;;;;;;;7.68;4.85;;;7.80;99.90;;;;;;5091648;28;20261;-78
2021/10/15 00:24:48;;;;;;;7.68;4.90;;;7.80;99.90;;;;;;5091514;28;20143;-77
2021/10/15 00:27:15;;;;;;;7.60;4.65;;;7.70;99.90;;;;;;5077303;28;20477;-79
2021/10/15 00:29:42;;;;;;;6.75;4.47;;;7.80;99.90;;;;;;5071430;28;20131;-79
2021/10/15 00:32:09;;;;;;;6.85;4.65;;;7.80;99.90;;;;;;5071424;28;20140;-79
2021/10/15 00:34:38;;;;;;;9.25;4.85;;;7.80;99.90;;;;;;5071326;28;20075;-78
2021/10/15 00:37:06;;;;;;;7.07;4.70;;;7.80;99.90;;;;;;5083299;28;20048;-77
2021/10/15 00:39:34;;;;;;;8.63;5.40;;;7.80;99.90;;;;;;5091642;28;20135;-78
2021/10/15 00:42:01;;;;;;;7.50;4.90;;;7.70;99.90;;;;;;5091548;28;20138;-79
2021/10/15 00:44:28;;;;;;;8.02;5.05;;;7.70;99.90;;;;;;5091413;28;20451;-78
2021/10/15 00:46:56;;;;;;;9.10;4.97;;;7.70;99.90;;;;;;5091228;28;20305;-80
2021/10/15 00:49:23;;;;;;;8.27;4.90;;;7.60;99.90;;;;;;5090590;28;20151;-79
2021/10/15 00:51:50;;;;;;;6.88;4.68;;;7.70;99.90;;;;;;5094045;28;20139;-79
2021/10/15 00:54:18;;;;;;;6.88;4.32;;;7.60;99.90;;;;;;5095008;28;20521;-79
2021/10/15 00:56:47;;;;;;;7.68;4.78;;;7.60;99.90;;;;;;5083900;28;20127;-78
2021/10/15 00:59:14;;;;;;;6.95;4.40;;;7.60;99.90;;;;;;5074652;28;20144;-76
2021/10/15 01:01:41;;;;;;;6.85;4.53;;;7.60;99.90;;;;;;5074891;28;20137;-77
2021/10/15 01:04:09;;;;;;;7.60;4.30;;;7.60;99.90;;;;;;5074567;28;20136;-78
2021/10/15 01:06:37;;;;;;;7.22;4.90;;;7.60;99.90;;;;;;5084389;28;20149;-79
2021/10/15 01:09:05;;;;;;;6.70;4.15;;;7.50;99.90;;;;;;5095634;28;20555;-77
2021/10/15 01:11:32;;;;;;;6.05;4.13;;;7.50;99.90;;;;;;5082137;28;20144;-81
2021/10/15 01:14:01;;;;;;;6.95;4.03;;;7.50;99.90;;;;;;5084853;28;20134;-78
2021/10/15 01:16:31;;;;;;;6.78;4.10;;;7.40;99.90;;;;;;5087261;28;20072;-79
2021/10/15 01:19:01;;;;;;;6.55;4.15;;;7.40;99.90;;;;;;5075518;28;20123;-78
2021/10/15 01:21:30;;;;;;;6.90;4.22;;;7.30;99.90;;;;;;5074560;28;20083;-79
2021/10/15 01:23:58;;;;;;;7.18;4.28;;;7.30;99.90;;;;;;5074144;28;20131;-78
2021/10/15 01:26:26;;;;;;;8.10;4.22;;;7.30;99.90;;;;;;5082198;28;20048;-79
2021/10/15 01:28:54;;;;;;;7.80;4.65;;;7.20;99.90;;;;;;5095224;28;20098;-79
2021/10/15 01:31:22;;;;;;;7.22;4.53;;;7.20;99.90;;;;;;5094738;28;20075;-78
2021/10/15 01:33:50;;;;;;;7.38;4.45;;;7.20;99.90;;;;;;5094454;28;20159;-79
2021/10/15 01:36:17;;;;;;;6.88;3.95;;;7.10;99.90;;;;;;5088429;28;20131;-77
2021/10/15 01:38:45;;;;;;;8.30;4.50;;;7.00;99.90;;;;;;5073890;28;20139;-79
2021/10/15 01:41:13;;;;;;;7.63;4.47;;;7.00;99.90;;;;;;5074022;28;20127;-79
2021/10/15 01:43:40;;;;;;;7.93;4.35;;;7.00;99.90;;;;;;5073944;28;20135;-78
2021/10/15 01:46:07;;;;;;;7.00;4.30;;;7.00;99.90;;;;;;5089126;28;20135;-78
2021/10/15 01:48:34;;;;;;;8.02;4.28;;;6.90;99.90;;;;;;5085352;28;20139;-79
2021/10/15 01:51:01;;;;;;;9.30;4.53;;;6.90;99.90;;;;;;5089315;28;20135;-79
2021/10/15 01:53:28;;;;;;;7.90;4.47;;;6.90;99.90;;;;;;5093971;28;20147;-78
2021/10/15 01:55:57;;;;;;;7.60;4.40;;;7.00;99.90;;;;;;5093886;28;20101;-79
2021/10/15 01:58:24;;;;;;;8.05;4.20;;;6.90;99.90;;;;;;5093628;28;20143;-78
2021/10/15 02:00:51;;;;;;;7.57;4.30;;;6.90;99.90;;;;;;5092104;28;20127;-78
2021/10/15 02:03:18;;;;;;;7.28;4.07;;;6.80;99.90;;;;;;5092605;28;20131;-78
2021/10/15 02:05:46;;;;;;;8.15;4.65;;;6.80;99.90;;;;;;5076868;28;20135;-79
2021/10/15 02:08:14;;;;;;;7.15;4.20;;;6.80;99.90;;;;;;5073658;28;20055;-78
2021/10/15 02:10:41;;;;;;;8.23;4.47;;;6.80;99.90;;;;;;5073191;28;20135;-78
2021/10/15 02:13:10;;;;;;;7.32;4.28;;;6.80;99.90;;;;;;5088383;28;20131;-80
2021/10/15 02:15:37;;;;;;;7.68;4.50;;;6.80;99.90;;;;;;5093594;28;20142;-78
2021/10/15 02:18:04;;;;;;;6.85;4.43;;;6.80;99.90;;;;;;5093375;28;20127;-78
2021/10/15 02:20:31;;;;;;;6.70;4.30;;;6.80;99.90;;;;;;5093412;28;20071;-79
2021/10/15 02:22:58;;;;;;;7.07;4.40;;;6.80;99.90;;;;;;5093266;28;20135;-78
2021/10/15 02:25:26;;;;;;;6.53;4.15;;;6.80;99.90;;;;;;5092734;28;20163;-79
2021/10/15 02:27:53;;;;;;;7.78;4.75;;;6.80;99.90;;;;;;5093399;28;20043;-79
2021/10/15 02:30:22;;;;;;;7.32;4.30;;;6.70;99.90;;;;;;5093036;28;20592;-77
2021/10/15 02:32:50;;;;;;;8.57;4.32;;;6.70;99.90;;;;;;5084595;28;20127;-79
2021/10/15 02:35:17;;;;;;;7.75;4.68;;;6.70;99.90;;;;;;5075197;28;20135;-78
2021/10/15 02:37:45;;;;;;;7.53;4.88;;;6.70;99.90;;;;;;5085481;28;20072;-79
2021/10/15 02:40:13;;;;;;;7.25;4.50;;;6.70;99.90;;;;;;5083789;28;20132;-77
2021/10/15 02:42:41;;;;;;;7.55;4.68;;;6.60;99.90;;;;;;5092799;28;20158;-79
2021/10/15 02:45:10;;;;;;;7.15;4.53;;;6.60;99.90;;;;;;5092950;28;20134;-79
2021/10/15 02:47:38;;;;;;;7.57;4.28;;;6.60;99.90;;;;;;5092047;28;20127;-78
2021/10/15 02:50:07;;;;;;;7.07;4.32;;;6.50;99.90;;;;;;5072637;28;20131;-78
2021/10/15 02:52:35;;;;;;;7.95;4.28;;;6.50;99.90;;;;;;5072355;28;20156;-78
2021/10/15 02:55:02;;;;;;;6.93;4.15;;;6.50;99.90;;;;;;5072631;28;20143;-79
2021/10/15 02:57:29;;;;;;;7.97;4.22;;;6.50;99.90;;;;;;5072220;28;20577;-78
2021/10/15 02:59:56;;;;;;;6.38;4.00;;;6.50;99.90;;;;;;5091217;28;20146;-79
2021/10/15 03:02:23;;;;;;;7.03;4.70;;;6.40;99.90;;;;;;5090594;28;20493;-78
2021/10/15 03:04:52;;;;;;;7.47;4.40;;;6.40;99.90;;;;;;5090035;28;20462;-77
2021/10/15 03:07:19;;;;;;;6.50;4.00;;;6.30;99.90;;;;;;5089728;28;20198;-79
2021/10/15 03:09:48;;;;;;;6.53;4.25;;;6.30;99.90;;;;;;5086971;28;20459;-77
2021/10/15 03:12:15;;;;;;;5.97;3.90;;;6.20;99.90;;;;;;5089237;28;20040;-77
2021/10/15 03:14:43;;;;;;;7.10;4.07;;;6.20;99.90;;;;;;5088324;28;20055;-77
2021/10/15 03:17:10;;;;;;;6.63;4.03;;;6.20;99.90;;;;;;5089017;28;20131;-77
2021/10/15 03:19:37;;;;;;;6.53;4.13;;;6.20;99.90;;;;;;5088675;28;20135;-78
2021/10/15 03:22:06;;;;;;;6.97;3.67;;;6.20;99.90;;;;;;5076757;28;20465;-80
2021/10/15 03:24:33;;;;;;;7.65;4.07;;;6.20;99.90;;;;;;5089077;28;20123;-76
2021/10/15 03:27:00;;;;;;;6.97;4.13;;;6.20;99.90;;;;;;5069302;28;20155;-77
2021/10/15 03:29:27;;;;;;;7.82;4.32;;;6.20;99.90;;;;;;5068577;28;20135;-79
2021/10/15 03:31:54;;;;;;;7.32;4.00;;;6.20;99.90;;;;;;5070972;28;20135;-79
2021/10/15 03:34:21;;;;;;;6.88;3.75;;;6.20;99.90;;;;;;5068382;28;20139;-79
2021/10/15 03:36:48;;;;;;;6.35;4.03;;;6.10;99.90;;;;;;5068496;28;20133;-79
2021/10/15 03:39:17;;;;;;;6.47;3.78;;;6.10;99.90;;;;;;5068449;28;20151;-78
2021/10/15 03:41:44;;;;;;;7.10;4.15;;;6.10;99.90;;;;;;5068893;28;20139;-79
2021/10/15 03:44:11;;;;;;;6.68;4.10;;;6.10;99.90;;;;;;5069363;28;20139;-81
2021/10/15 03:46:38;;;;;;;6.93;3.92;;;6.00;99.90;;;;;;5088449;28;20135;-81
2021/10/15 03:49:05;;;;;;;7.03;3.67;;;6.00;99.90;;;;;;5088415;28;20150;-81
2021/10/15 03:51:32;;;;;;;7.55;3.85;;;6.00;99.90;;;;;;5088786;28;20139;-81
2021/10/15 03:53:59;;;;;;;7.30;3.80;;;6.00;99.90;;;;;;5078046;28;20135;-79
2021/10/15 03:56:27;;;;;;;6.30;3.92;;;5.90;99.90;;;;;;5068478;28;20139;-79
2021/10/15 03:58:55;;;;;;;7.05;4.00;;;5.90;99.90;;;;;;5079320;28;20135;-79
2021/10/15 04:01:22;;;;;;;6.38;3.70;;;5.90;99.90;;;;;;5089632;28;20465;-80
2021/10/15 04:03:49;;;;;;;6.72;4.15;;;5.90;99.90;;;;;;5091648;28;20518;-80
2021/10/15 04:06:16;;;;;;;7.43;4.07;;;5.90;99.90;;;;;;5091687;28;20135;-81
2021/10/15 04:08:43;;;;;;;7.72;4.28;;;5.90;99.90;;;;;;5091741;28;20135;-81
2021/10/15 04:11:10;;;;;;;6.85;3.85;;;5.80;99.90;;;;;;5078492;28;20127;-81
2021/10/15 04:13:38;;;;;;;6.78;3.92;;;5.80;99.90;;;;;;5071496;28;20477;-80
2021/10/15 04:16:05;;;;;;;6.93;3.88;;;5.80;99.90;;;;;;5083652;28;20135;-79
2021/10/15 04:18:32;;;;;;;6.28;4.07;;;5.80;99.90;;;;;;5091739;28;20084;-79
2021/10/15 04:20:59;;;;;;;6.47;3.92;;;5.80;99.90;;;;;;5090161;28;20127;-81
2021/10/15 04:23:27;;;;;;;6.75;4.20;;;5.70;99.90;;;;;;5071703;28;20056;-81
2021/10/15 04:25:54;;;;;;;7.60;4.55;;;5.70;99.90;;;;;;5073176;28;20198;-80
2021/10/15 04:28:21;;;;;;;7.18;4.50;;;5.70;99.90;;;;;;5076427;28;20150;-80
2021/10/15 04:30:49;;;;;;;5.95;3.67;;;5.70;99.90;;;;;;5075405;28;20136;-78
2021/10/15 04:33:16;;;;;;;8.52;4.03;;;5.80;99.90;;;;;;5075285;28;20148;-77
2021/10/15 04:35:44;;;;;;;6.07;4.00;;;5.70;99.90;;;;;;5076482;28;20652;-78
2021/10/15 04:38:11;;;;;;;6.93;4.07;;;5.70;99.90;;;;;;5095283;28;20151;-78
2021/10/15 04:40:38;;;;;;;6.63;4.10;;;5.70;99.90;;;;;;5095127;28;20054;-80
2021/10/15 04:43:06;;;;;;;6.95;3.72;;;5.70;99.90;;;;;;5095154;28;20142;-78
2021/10/15 04:45:33;;;;;;;6.05;3.65;;;5.70;99.90;;;;;;5095112;28;20143;-78
2021/10/15 04:48:02;;;;;;;7.60;4.25;;;5.70;99.90;;;;;;5095029;28;20131;-80
2021/10/15 04:50:29;;;;;;;7.43;4.28;;;5.80;99.90;;;;;;5095152;28;20048;-79
2021/10/15 04:52:56;;;;;;;7.65;4.38;;;5.70;99.90;;;;;;5095135;28;20147;-79
2021/10/15 04:55:23;;;;;;;8.50;4.63;;;5.80;99.90;;;;;;5094963;28;20139;-79
2021/10/15 04:57:50;;;;;;;8.15;4.90;;;5.80;99.90;;;;;;5094940;28;20138;-80
2021/10/15 05:00:18;;;;;;;8.20;4.97;;;5.80;99.90;;;;;;5095361;28;20155;-77
2021/10/15 05:02:45;;;;;;;7.70;4.95;;;5.80;99.90;;;;;;5094960;28;20051;-79
2021/10/15 05:05:15;;;;;;;8.27;4.60;;;5.90;99.90;;;;;;5094837;28;20040;-77
2021/10/15 05:07:42;;;;;;;8.43;4.45;;;5.90;99.90;;;;;;5094886;28;20068;-76
2021/10/15 05:10:10;;;;;;;7.03;4.38;;;5.90;99.90;;;;;;5094620;28;20147;-78
2021/10/15 05:12:37;;;;;;;7.07;3.85;;;5.90;99.90;;;;;;5095079;28;20127;-80
2021/10/15 05:15:07;;;;;;;8.05;4.32;;;5.80;99.90;;;;;;5094416;28;20079;-78
2021/10/15 05:17:36;;;;;;;7.38;4.50;;;5.80;99.90;;;;;;5094909;28;20127;-79
2021/10/15 05:20:04;;;;;;;7.60;4.43;;;5.80;99.90;;;;;;5094429;28;20058;-76
2021/10/15 05:22:33;;;;;;;6.72;4.03;;;5.80;99.90;;;;;;5094381;28;20470;-79
2021/10/15 05:25:00;;;;;;;7.45;4.43;;;5.80;99.90;;;;;;5094359;28;20131;-78
2021/10/15 05:27:28;;;;;;;8.90;4.80;;;5.70;99.90;;;;;;5094539;28;20394;-77
2021/10/15 05:29:55;;;;;;;8.98;5.25;;;5.70;99.90;;;;;;5094080;28;20127;-80
2021/10/15 05:32:22;;;;;;;8.98;5.20;;;5.70;99.90;;;;;;5094128;28;20132;-80
2021/10/15 05:34:50;;;;;;;7.90;4.82;;;5.70;99.90;;;;;;5094293;28;20135;-78
2021/10/15 05:37:17;;;;;;;9.55;4.88;;;5.70;99.90;;;;;;5093992;28;20138;-79
2021/10/15 05:39:46;;;;;;;7.43;5.03;;;5.70;99.90;;;;;;5094132;28;20056;-78
2021/10/15 05:42:13;;;;;;;8.15;5.20;;;5.70;99.90;;;;;;5094274;28;20552;-78
2021/10/15 05:44:41;;;;;;;9.63;5.07;;;5.70;99.90;;;;;;5094122;28;20475;-80
2021/10/15 05:47:09;;;;;;;7.85;4.78;;;5.70;99.90;;;;;;5094000;28;20058;-77
2021/10/15 05:49:39;;;;;;;7.53;4.65;;;5.70;99.90;;;;;;5093610;28;20059;-77
2021/10/15 05:52:10;;;;;;;9.10;4.75;;;5.70;99.90;;;;;;5093882;28;20051;-78
2021/10/15 05:54:45;;;;;;;8.98;5.07;;;5.70;99.90;;;;;;5093561;28;20486;-80
2021/10/15 05:59:58;;;;;;;7.57;4.35;;;5.70;99.90;;;;;;5062523;28;20048;-77
2021/10/15 06:02:30;;;;;;;6.90;4.13;;;5.70;99.90;;;;;;5094198;28;20067;-78
2021/10/15 06:16:23;;;;;;;9.13;5.93;;;5.90;99.90;;;;;;5069144;28;19920;-77
2021/10/15 06:18:57;;;;;;;9.30;5.10;;;5.90;99.90;;;;;;5068956;28;20106;-77
2021/10/15 06:21:25;;;;;;;8.40;5.00;;;5.90;99.90;;;;;;5069130;28;20056;-78
2021/10/15 06:23:54;;;;;;;8.35;4.68;;;5.90;99.90;;;;;;5068836;28;20045;-76
2021/10/15 06:26:21;;;;;;;8.43;5.20;;;5.90;99.90;;;;;;5068908;28;20044;-80
2021/10/15 06:28:48;;;;;;;7.60;4.65;;;5.90;99.90;;;;;;5068779;28;20124;-77
2021/10/15 06:31:15;;;;;;;8.63;4.93;;;5.90;99.90;;;;;;5068589;28;20127;-80
2021/10/15 06:33:42;;;;;;;8.35;4.85;;;5.90;99.90;;;;;;5068874;28;20124;-78
2021/10/15 06:36:10;;;;;;;7.85;4.80;;;5.90;99.90;;;;;;5068710;28;20143;-76
2021/10/15 06:38:37;;;;;;;9.40;5.15;;;6.00;99.90;;;;;;5068797;28;20140;-77
2021/10/15 06:41:05;;;;;;;8.98;5.13;;;6.00;99.90;;;;;;5068626;28;20148;-77
2021/10/15 06:43:32;;;;;;;8.77;5.10;;;6.10;99.90;;;;;;5068616;28;20141;-79
2021/10/15 06:45:59;;;;;;;9.32;5.30;;;6.10;99.90;;;;;;5069801;28;20487;-77
2021/10/15 06:48:26;;;;;;;9.98;5.22;;;6.10;99.90;;;;;;5068354;28;20458;-80
2021/10/15 06:50:53;;;;;;;7.80;4.72;;;6.10;99.90;;;;;;5068223;28;20047;-80
2021/10/15 06:53:20;;;;;;;8.48;4.50;;;6.20;99.90;;;;;;5068159;28;20466;-79
2021/10/15 06:55:48;;;;;;;6.63;4.25;;;6.20;99.90;;;;;;5068297;28;20131;-79
2021/10/15 06:58:17;;;;;;;8.13;4.50;;;6.30;99.90;;;;;;5068205;28;20056;-77
2021/10/15 07:00:44;;;;;;;7.28;4.13;;;6.30;99.90;;;;;;5068274;28;20071;-76
2021/10/15 07:03:15;;;;;;;7.97;4.47;;;6.30;99.90;;;;;;5068063;28;20143;-78
2021/10/15 07:05:43;;;;;;;7.53;4.07;;;6.40;99.90;;;;;;5067765;28;20154;-78
2021/10/15 07:08:10;;;;;;;7.85;3.90;;;6.30;99.90;;;;;;5068085;28;20124;-79
2021/10/15 07:10:38;;;;;;;8.55;4.25;;;6.40;99.90;;;;;;5067911;28;20159;-78
2021/10/15 07:13:05;;;;;;;6.53;3.83;;;6.40;99.90;;;;;;5067809;28;20469;-80
2021/10/15 07:15:34;;;;;;;8.88;4.55;;;6.50;99.90;;;;;;5067935;28;20127;-77
2021/10/15 07:18:01;;;;;;;8.38;4.72;;;6.60;99.90;;;;;;5061570;28;20137;-79
2021/10/15 07:20:29;;;;;;;9.45;5.47;;;6.60;99.90;;;;;;5054599;28;20076;-80
2021/10/15 07:22:56;;;;;;;8.73;5.00;;;6.60;99.90;;;;;;5054509;28;20127;-79
2021/10/15 07:25:24;;;;;;;8.82;5.38;;;6.60;99.90;;;;;;5054442;28;20589;-81
2021/10/15 07:27:52;;;;;;;8.93;4.60;;;6.60;99.90;;;;;;5054360;28;20409;-77
2021/10/15 07:30:19;;;;;;;7.82;4.45;;;6.70;99.90;;;;;;5054363;28;20139;-76
2021/10/15 07:32:52;;;;;;;8.35;5.03;;;6.70;99.90;;;;;;5054341;28;20522;-79
2021/10/15 07:35:19;;;;;;;7.65;4.97;;;6.70;99.90;;;;;;5054223;28;20045;-77
2021/10/15 07:37:47;;;;;;;9.25;4.72;;;6.70;99.90;;;;;;5054206;28;20582;-79
2021/10/15 07:40:14;;;;;;;8.05;4.80;;;6.80;99.90;;;;;;5054146;28;20167;-78
2021/10/15 07:42:41;;;;;;;7.78;5.00;;;6.70;99.90;;;;;;5053980;28;20053;-78
2021/10/15 07:45:09;;;;;;;9.95;5.28;;;6.70;99.90;;;;;;5053971;28;20139;-78
2021/10/15 07:47:37;;;;;;;8.63;5.22;;;6.80;99.90;;;;;;5053891;28;20137;-78
2021/10/15 07:50:06;;;;;;;7.97;4.80;;;6.80;99.90;;;;;;5054056;28;20128;-78
2021/10/15 07:52:33;;;;;;;8.10;4.82;;;6.80;99.90;;;;;;5053759;28;20137;-78
2021/10/15 07:55:00;;;;;;;8.02;4.60;;;6.80;99.90;;;;;;5053924;28;20549;-78
2021/10/15 07:57:27;;;;;;;8.13;4.95;;;6.80;99.90;;;;;;5053838;28;20047;-80
2021/10/15 07:59:55;;;;;;;8.60;5.05;;;6.90;99.90;;;;;;5054074;28;20136;-78
2021/10/15 08:02:25;;;;;;;7.85;4.70;;;6.90;99.90;;;;;;5053879;28;20128;-80
2021/10/15 08:04:52;;;;;;;8.70;5.38;;;7.00;99.90;;;;;;5054029;28;20045;-80
2021/10/15 08:07:21;;;;;;;9.55;5.00;;;7.00;99.90;;;;;;5053336;28;20303;-79
2021/10/15 08:09:48;;;;;;;8.18;4.53;;;7.00;99.90;;;;;;5053516;28;20136;-77
2021/10/15 08:12:15;;;;;;;8.65;4.70;;;7.00;99.90;;;;;;5053614;28;20049;-78
2021/10/15 08:14:42;;;;;;;7.85;4.57;;;7.10;99.90;;;;;;5053476;28;20136;-78
2021/10/15 08:17:09;;;;;;;9.30;4.60;;;7.10;99.90;;;;;;5053494;28;20128;-77
2021/10/15 08:19:37;;;;;;;6.10;3.95;;;7.20;99.90;;;;;;5053465;28;20145;-79
2021/10/15 08:22:05;;;;;;;8.73;4.38;;;7.30;99.90;;;;;;5053668;28;20524;-79
2021/10/15 08:24:34;;;;;;;7.57;4.68;;;7.40;99.90;;;;;;5053302;28;20179;-80
2021/10/15 08:27:01;;;;;;;9.13;5.10;;;7.50;99.90;;;;;;5053142;28;20376;-78
2021/10/15 08:29:28;;;;;;;6.93;4.10;;;7.60;99.90;;;;;;5052418;28;20497;-78
2021/10/15 08:31:55;;;;;;;7.00;4.13;;;7.70;99.90;;;;;;5055574;28;20041;-78
2021/10/15 08:34:24;;;;;;;8.13;4.03;;;7.80;99.90;;;;;;5053278;28;20128;-78
2021/10/15 08:36:53;;;;;;;6.13;3.95;;;7.90;99.90;;;;;;5053013;28;20477;-79
2021/10/15 08:39:23;;;;;;;7.45;4.20;;;8.00;99.90;;;;;;5052947;28;20552;-80
2021/10/15 08:41:52;;;;;;;6.82;3.65;;;8.10;99.90;;;;;;5053009;28;20057;-78
2021/10/15 08:44:19;;;;;;;6.20;3.60;;;8.20;99.90;;;;;;5052978;28;20681;-78
2021/10/15 08:46:46;;;;;;;6.68;3.40;;;8.30;99.90;;;;;;5052814;28;20102;-80
2021/10/15 08:49:13;;;;;;;7.03;3.80;;;8.40;99.90;;;;;;5053030;28;20132;-79
2021/10/15 08:51:40;;;;;;;5.25;3.15;;;8.50;99.90;;;;;;5052853;28;20159;-80
2021/10/15 08:54:08;;;;;;;5.70;3.13;;;8.60;99.90;;;;;;5052987;28;20055;-81
2021/10/15 08:56:35;;;;;;;6.30;3.40;;;8.70;99.90;;;;;;5052836;28;20493;-80
2021/10/15 08:59:08;;;;;;;5.22;3.00;;;8.80;99.90;;;;;;5052796;28;20049;-80
2021/10/15 09:01:44;;;;;;;6.55;3.25;;;8.90;99.90;;;;;;5052892;28;20494;-78
2021/10/15 09:04:15;;;;;;;4.97;3.10;;;9.00;99.90;;;;;;5052940;28;20056;-79
2021/10/15 09:06:43;;;;;;;5.28;2.97;;;9.10;99.90;;;;;;5052183;28;20102;-79
2021/10/15 09:09:11;;;;;;;5.30;2.92;;;9.20;99.90;;;;;;5052615;28;20149;-78
2021/10/15 09:11:40;;;;;;;5.20;2.92;;;9.30;99.90;;;;;;5052477;28;20131;-79
2021/10/15 09:14:14;;;;;;;4.65;2.95;;;9.40;99.90;;;;;;5052625;28;20140;-79
2021/10/15 09:17:01;;;;;;;4.65;2.92;;;9.50;99.90;;;;;;5052617;28;20088;-80
2021/10/15 09:19:31;;;;;;;4.57;2.83;;;9.60;99.90;;;;;;5052451;28;20475;-80
2021/10/15 09:22:19;;;;;;;4.82;2.80;;;9.70;99.90;;;;;;5052212;28;20498;-78
2021/10/15 09:24:54;;;;;;;5.00;2.85;;;9.80;99.90;;;;;;5052607;28;20048;-80
2021/10/15 09:27:29;;;;;;;6.45;3.05;;;9.90;99.70;;;;;;5052199;28;20059;-78
2021/10/15 09:30:04;;;;;;;5.40;2.60;;;10.00;99.60;;;;;;5052309;28;20057;-79
2021/10/15 09:32:34;;;;;;;5.78;2.85;;;10.10;99.50;;;;;;5052221;28;20139;-79
2021/10/15 09:35:03;;;;;;;7.68;3.40;;;10.10;99.50;;;;;;5052344;28;20131;-79
2021/10/15 09:37:32;;;;;;;6.93;2.97;;;10.20;99.50;;;;;;5051993;28;20462;-80
2021/10/15 09:40:07;;;;;;;5.68;2.83;;;10.30;99.40;;;;;;5052117;28;20135;-80
2021/10/15 09:42:36;;;;;;;4.80;2.40;;;10.50;99.20;;;;;;5051774;28;20127;-78
2021/10/15 09:45:15;;;;;;;4.57;2.70;;;10.60;98.70;;;;;;5051762;28;20049;-79
2021/10/15 09:47:44;;;;;;;3.95;2.20;;;10.70;98.50;;;;;;5051837;28;20076;-80
2021/10/15 09:50:14;;;;;;;4.07;1.92;;;10.80;97.80;;;;;;5051842;28;20056;-80
2021/10/15 09:52:44;;;;;;;3.88;2.00;;;10.80;97.80;;;;;;5052007;28;20143;-77
2021/10/15 09:55:18;;;;;;;4.85;2.38;;;10.90;97.40;;;;;;5051790;28;20091;-79
2021/10/15 09:57:48;;;;;;;4.40;2.30;;;11.00;96.60;;;;;;5051664;28;20140;-78
2021/10/15 10:00:19;;;;;;;4.47;2.50;;;11.10;96.30;;;;;;5051664;28;20091;-77
2021/10/15 10:02:46;;;;;;;5.50;2.95;;;11.10;96.20;;;;;;5051981;28;20088;-76
2021/10/15 10:05:16;;;;;;;4.78;2.75;;;11.20;95.90;;;;;;5051655;28;20080;-80
2021/10/15 10:07:46;;;;;;;6.13;3.10;;;11.30;96.00;;;;;;5051347;28;20135;-79
2021/10/15 10:10:17;;;;;;;5.05;3.00;;;11.30;95.70;;;;;;5051673;28;20167;-81
2021/10/15 10:12:45;;;;;;;5.25;3.05;;;11.40;95.90;;;;;;5051850;28;20139;-77
2021/10/15 10:15:18;;;;;;;6.18;2.90;;;11.50;95.70;;;;;;5053172;28;20133;-78
2021/10/15 10:17:51;;;;;;;4.93;2.90;;;11.60;95.50;;;;;;5053289;28;20131;-80
2021/10/15 10:20:24;;;;;;;5.47;2.45;;;11.60;95.50;;;;;;5052403;28;20075;-77
2021/10/15 10:23:05;;;;;;;4.95;2.65;;;11.80;95.60;;;;;;5052344;28;20127;-79
2021/10/15 10:25:33;;;;;;;6.05;2.70;;;11.90;95.70;;;;;;5052100;28;20111;-80
2021/10/15 10:28:19;;;;;;;4.72;2.78;;;12.00;95.70;;;;;;5051723;28;20195;-79
2021/10/15 10:30:50;;;;;;;6.40;3.22;;;12.00;95.80;;;;;;5052119;28;20057;-78
2021/10/15 10:33:18;;;;;;;4.75;2.55;;;12.10;95.40;;;;;;5052667;28;20079;-79
2021/10/15 10:35:45;;;;;;;5.63;2.53;;;12.20;95.40;;;;;;5051804;28;20140;-78
2021/10/15 10:38:33;;;;;;;4.88;2.70;;;12.20;95.10;;;;;;5051813;28;20124;-80
2021/10/15 10:41:22;;;;;;;5.68;2.45;;;12.30;95.00;;;;;;5042109;28;20885;-80
2021/10/15 10:44:22;;;;;;;4.55;2.40;;;12.40;94.60;;;;;;5048573;28;20128;-79
2021/10/15 10:47:15;;;;;;;4.53;2.67;;;12.50;94.30;;;;;;5048660;28;20068;-80
2021/10/15 10:50:09;;;;;;;4.72;2.55;;;12.50;94.00;;;;;;5048890;28;20052;-80
2021/10/15 10:52:39;;;;;;;4.00;1.98;;;12.60;94.00;;;;;;5049341;28;20057;-80
2021/10/15 10:55:07;;;;;;;5.07;2.35;;;12.70;93.80;;;;;;5052086;28;20045;-79
2021/10/15 10:57:42;;;;;;;5.75;2.20;;;12.70;93.40;;;;;;5053719;28;20123;-76
2021/10/15 11:00:22;;;;;;;4.47;2.17;;;12.80;93.40;;;;;;5051884;28;20044;-79
2021/10/15 11:02:53;;;;;;;3.80;1.90;;;12.90;93.20;;;;;;5052180;28;20052;-80
2021/10/15 11:05:35;;;;;;;3.40;1.67;;;13.00;93.20;;;;;;5051830;28;20568;-77
2021/10/15 11:08:31;;;;;;;3.03;1.60;;;13.10;93.40;;;;;;5051904;28;20052;-78
2021/10/15 11:11:43;;;;;;;3.33;1.50;;;13.20;92.70;;;;;;5052704;28;20302;-80
2021/10/15 11:14:49;;;;;;;3.60;1.30;;;13.30;92.60;;;;;;5052202;28;20049;-79
2021/10/15 11:17:17;;;;;;;3.03;1.35;;;13.40;92.50;;;;;;5051694;28;20142;-80
2021/10/15 11:19:46;;;;;;;2.78;1.20;;;13.40;92.60;;;;;;5052129;28;20128;-79
2021/10/15 11:22:14;;;;;;;3.63;1.50;;;13.60;92.30;;;;;;5052638;28;20045;-77
2021/10/15 11:24:56;;;;;;;3.92;1.70;;;13.60;92.50;;;;;;5054092;28;20438;-77
2021/10/15 11:27:23;;;;;;;3.67;1.70;;;13.70;92.20;;;;;;5052102;28;20055;-80
2021/10/15 11:29:55;;;;;;;3.33;1.63;;;13.80;91.50;;;;;;5052704;28;20136;-78
2021/10/15 11:32:35;;;;;;;4.85;1.80;;;13.90;91.20;;;;;;5051716;28;20048;-80
2021/10/15 11:35:17;;;;;;;3.95;1.65;;;14.00;91.20;;;;;;5051314;28;20127;-80
2021/10/15 11:38:03;;;;;;;3.40;1.50;;;14.10;91.20;;;;;;5051644;28;20500;-80
2021/10/15 11:40:36;;;;;;;4.30;1.80;;;14.20;91.10;;;;;;5051587;28;20468;-77
2021/10/15 11:43:14;;;;;;;3.55;1.35;;;14.30;91.20;;;;;;5051405;28;20076;-79
2021/10/15 11:45:44;;;;;;;3.90;1.42;;;14.40;91.00;;;;;;5051492;28;20059;-79
2021/10/15 11:48:14;;;;;;;4.18;1.83;;;14.50;90.80;;;;;;5050923;28;20140;-78
2021/10/15 11:50:47;;;;;;;3.53;1.50;;;14.70;90.20;;;;;;5051006;28;20080;-79
2021/10/15 11:53:18;;;;;;;3.40;1.50;;;14.80;90.20;;;;;;5051378;28;20087;-80
2021/10/15 11:55:46;;;;;;;3.22;1.67;;;14.90;90.30;;;;;;5050995;28;20522;-79
2021/10/15 11:58:29;;;;;;;3.40;1.50;;;15.00;90.00;;;;;;5052883;28;20136;-79
2021/10/15 12:01:07;;;;;;;3.28;1.50;;;15.20;89.00;;;;;;5054141;28;20119;-79
2021/10/15 12:03:37;;;;;;;3.88;1.50;;;15.30;88.30;;;;;;5054762;28;20399;-79
2021/10/15 12:06:27;;;;;;;3.08;1.63;;;15.40;87.70;;;;;;5054989;28;20171;-76
2021/10/15 12:08:59;;;;;;;2.67;1.35;;;15.60;87.30;;;;;;5053315;28;20128;-77
2021/10/15 12:11:43;;;;;;;2.63;1.40;;;15.70;87.80;;;;;;5053550;28;20148;-79
2021/10/15 12:14:12;;;;;;;;;;;15.80;86.40;;;;;;5054042;28;20049;-78
2021/10/15 12:16:49;;;;;;;3.35;1.20;;;16.00;86.90;;;;;;5053196;28;20031;-78
2021/10/15 12:19:29;;;;;;;2.83;1.38;;;16.20;87.10;;;;;;5053605;28;20080;-78
2021/10/15 12:22:15;;;;;;;3.85;1.67;;;16.40;86.90;;;;;;5053551;28;20156;-78
2021/10/15 12:24:45;;;;;;;3.40;1.52;;;16.50;84.40;;;;;;5054098;28;20049;-80
2021/10/15 12:27:16;;;;;;;3.28;1.35;;;16.70;83.20;;;;;;5053321;28;20489;-79
2021/10/15 12:29:46;;;;;;;4.05;1.63;;;16.80;83.40;;;;;;5052575;28;20084;-79
2021/10/15 12:32:21;;;;;;;3.50;1.60;;;16.90;83.70;;;;;;5053086;28;20155;-79
2021/10/15 12:35:10;;;;;;;3.17;1.60;;;17.10;82.10;;;;;;5053184;28;20494;-77
2021/10/15 12:37:44;;;;;;;3.40;1.88;;;17.10;82.00;;;;;;5052992;28;20045;-79
2021/10/15 12:40:38;;;;;;;3.15;1.48;;;17.30;81.70;;;;;;5053345;28;20139;-78
2021/10/15 12:43:13;;;;;;;4.38;1.90;;;17.40;79.70;;;;;;5052765;28;20041;-78
2021/10/15 12:45:41;;;;;;;;;;;17.50;77.70;;;;;;5053064;28;20048;-78
2021/10/15 12:48:16;;;;;;;4.78;2.20;;;17.50;78.00;;;;;;5052989;28;20346;-77
2021/10/15 12:50:58;;;;;;;3.85;1.65;;;17.60;77.70;;;;;;5052770;28;20051;-77
2021/10/15 12:53:27;;;;;;;3.63;1.90;;;17.70;77.70;;;;;;5032836;28;20080;-78
2021/10/15 12:55:58;;;;;;;3.83;2.28;;;17.90;77.90;;;;;;5032927;28;20160;-80
2021/10/15 12:58:27;;;;;;;3.97;2.00;;;18.10;75.70;;;;;;5033082;28;20049;-78
2021/10/15 13:01:00;;;;;;;4.10;2.20;;;18.20;75.20;;;;;;5033031;28;20128;-78
2021/10/15 13:03:28;;;;;;;4.13;1.77;;;18.40;74.90;;;;;;5044943;28;20076;-77
2021/10/15 13:05:59;;;;;;;4.82;2.33;;;18.60;74.60;;;;;;5053095;28;20112;-78
2021/10/15 13:08:28;;;;;;;4.03;2.08;;;18.70;72.80;;;;;;5052531;28;20091;-78
2021/10/15 13:10:56;;;;;;;3.30;1.80;;;18.80;71.80;;;;;;5053061;28;20052;-76
2021/10/15 13:13:24;;;;;;;3.55;1.75;;;19.00;70.20;;;;;;5052557;28;20056;-78
2021/10/15 13:15:51;;;;;;;4.80;2.08;;;19.00;70.40;;;;;;5052995;28;20132;-79
2021/10/15 13:18:18;;;;;;;3.55;1.83;;;19.10;70.00;;;;;;5052389;28;20081;-79
2021/10/15 13:20:46;;;;;;;4.13;2.10;;;19.20;70.60;;;;;;5052988;28;20084;-77
2021/10/15 13:23:14;;;;;;;3.63;2.00;;;19.20;71.90;;;;;;5051551;28;20553;-78